Brownwood, TX

10:00 PM CDT on June 25, 2017 (GMT -0500)
Brownwood Regional

Weather History for KBWD - September, 2012

Change the Weather History Date:

Wednesday, September 26, 2012

  Actual Average (KABI) Record (KABI)
Temperature  
Mean Temperature 81 °F -  
Max Temperature 91 °F 83 °F 105 °F (1977)
Min Temperature 71 °F 58 °F 39 °F (2000)
Cooling Degree Days 16    
Growing Degree Days 31 (Base 50)    
Moisture  
Dew Point 61 °F    
Average Humidity 55    
Maximum Humidity 83    
Minimum Humidity 31    
Precipitation  
Precipitation 0.00 in - - ()
Sea Level Pressure  
Sea Level Pressure 29.98 in    
Wind  
Wind Speed 12 mph (SSE)    
Max Wind Speed 20 mph    
Max Gust Speed 28 mph    
Visibility 10 miles    
Events      
Averages and records for this station are not official NWS values.
T = Trace of Precipitation, MM = Missing Value Source: NWS Daily Summary

Daily Weather History Graph

Daily Weather History Graph

Search for Another Location

Airport or City:

Trip Planner

Search our weather history database for the weather conditions in past years. The results will help you decide how hot, cold, wet, or windy it might be!

Date:

Astronomy

Sep. 26, 2012 Rise Set
Actual Time 7:26 AM CDT 7:26 PM CDT
Civil Twilight 7:02 AM CDT 7:50 PM CDT
Nautical Twilight 6:34 AM CDT 8:19 PM CDT
Astronomical Twilight 6:05 AM CDT 8:47 PM CDT
Moon 5:18 PM CDT 4:05 AM CDT
Length of Visible Light 12h 48m
Length of Day
11h 59m
Waxing Gibbous, 88% of the Moon is Illuminated
Sep 26
Waxing Gibbous
Sep 29
Full
Oct 8
Last Quarter
Oct 15
New
Oct 21
First Quarter

Hourly Weather History & Observations

Time (CDT) Temp. Heat Index Dew Point Humidity Pressure Visibility Wind Dir Wind Speed Gust Speed Precip Events Conditions
12:15 AM 77.0 °F - 57.2 °F 50% 29.95 in 10.0 mi SSE 10.4 mph 16.1 mph N/A   Partly Cloudy
12:35 AM 77.0 °F - 57.2 °F 50% 29.96 in 10.0 mi SSE 13.8 mph 23.0 mph N/A   Clear
12:55 AM 77.0 °F - 59.0 °F 54% 29.95 in 10.0 mi SSE 11.5 mph - N/A   Clear
1:15 AM 75.2 °F - 60.8 °F 61% 29.95 in 10.0 mi SSE 11.5 mph 19.6 mph N/A   Clear
1:35 AM 75.2 °F - 62.6 °F 65% 29.95 in 10.0 mi SSE 11.5 mph 20.7 mph N/A   Clear
1:55 AM 75.2 °F - 62.6 °F 65% 29.95 in 10.0 mi SSE 12.7 mph 23.0 mph N/A   Clear
2:15 AM 75.2 °F - 64.4 °F 69% 29.96 in 10.0 mi SSE 12.7 mph 19.6 mph N/A   Clear
2:35 AM 75.2 °F - 64.4 °F 69% 29.96 in 10.0 mi SSE 12.7 mph 20.7 mph N/A   Clear
2:55 AM 73.4 °F - 64.4 °F 73% 29.96 in 10.0 mi SSE 11.5 mph 16.1 mph N/A   Clear
3:15 AM 73.4 °F - 62.6 °F 69% 29.95 in 10.0 mi South 12.7 mph - N/A   Partly Cloudy
3:35 AM 73.4 °F - 62.6 °F 69% 29.95 in 10.0 mi South 15.0 mph - N/A   Partly Cloudy
3:55 AM 73.4 °F - 62.6 °F 69% 29.95 in 10.0 mi SSE 12.7 mph - N/A   Partly Cloudy
4:15 AM 71.6 °F - 62.6 °F 73% 29.96 in 10.0 mi SSE 11.5 mph - N/A   Scattered Clouds
4:35 AM 71.6 °F - 62.6 °F 73% 29.95 in 10.0 mi SSE 11.5 mph - N/A   Partly Cloudy
4:55 AM 71.6 °F - 64.4 °F 78% 29.95 in 10.0 mi SSE 12.7 mph - N/A   Clear
5:15 AM 71.6 °F - 64.4 °F 78% 29.96 in 10.0 mi SSE 11.5 mph - N/A   Scattered Clouds
5:35 AM 71.6 °F - 64.4 °F 78% 29.96 in 10.0 mi SSE 10.4 mph 17.3 mph N/A   Mostly Cloudy
5:55 AM 71.6 °F - 64.4 °F 78% 29.96 in 10.0 mi SSE 12.7 mph 17.3 mph N/A   Mostly Cloudy
6:15 AM 71.6 °F - 64.4 °F 78% 29.97 in 10.0 mi SSE 10.4 mph - N/A   Overcast
6:35 AM 73.4 °F - 64.4 °F 73% 29.97 in 10.0 mi SSE 9.2 mph - N/A   Overcast
7:15 AM 73.4 °F - 64.4 °F 73% 29.98 in 10.0 mi SSE 11.5 mph - N/A   Overcast
7:35 AM 71.6 °F - 66.2 °F 83% 29.98 in 10.0 mi SSE 12.7 mph - N/A   Overcast
7:55 AM 73.4 °F - 66.2 °F 78% 29.99 in 10.0 mi SSE 11.5 mph - N/A   Overcast
8:15 AM 73.4 °F - 66.2 °F 78% 29.99 in 10.0 mi SSE 10.4 mph - N/A   Overcast
8:35 AM 75.2 °F - 66.2 °F 73% 30.00 in 10.0 mi SSE 11.5 mph - N/A   Mostly Cloudy
8:55 AM 75.2 °F - 66.2 °F 73% 30.00 in 10.0 mi South 16.1 mph 19.6 mph N/A   Overcast
9:15 AM 75.2 °F - 66.2 °F 73% 30.01 in 10.0 mi South 15.0 mph 21.9 mph N/A   Overcast
9:35 AM 77.0 °F - 64.4 °F 65% 30.01 in 10.0 mi South 19.6 mph 27.6 mph N/A   Mostly Cloudy
9:55 AM 77.0 °F - 64.4 °F 65% 30.02 in 10.0 mi South 19.6 mph 26.5 mph N/A   Mostly Cloudy
10:15 AM 80.6 °F 82.3 °F 64.4 °F 58% 30.03 in 10.0 mi South 17.3 mph 25.3 mph N/A   Mostly Cloudy
12:15 PM 84.2 °F 85.6 °F 64.4 °F 51% 30.03 in 10.0 mi South 13.8 mph 20.7 mph N/A   Partly Cloudy
12:35 PM 86.0 °F 87.3 °F 64.4 °F 48% 30.02 in 10.0 mi South 13.8 mph 20.7 mph N/A   Mostly Cloudy
12:55 PM 86.0 °F 87.3 °F 64.4 °F 48% 30.02 in 10.0 mi South 18.4 mph - N/A   Mostly Cloudy
1:15 PM 86.0 °F 86.6 °F 62.6 °F 45% 30.01 in 10.0 mi South 17.3 mph 21.9 mph N/A   Mostly Cloudy
1:35 PM 86.0 °F 86.6 °F 62.6 °F 45% 30.00 in 10.0 mi South 10.4 mph 17.3 mph N/A   Mostly Cloudy
1:55 PM 89.6 °F 90.1 °F 62.6 °F 40% 29.99 in 10.0 mi South 13.8 mph 23.0 mph N/A   Scattered Clouds
2:15 PM 87.8 °F 88.5 °F 62.6 °F 43% 29.99 in 10.0 mi SE 15.0 mph 19.6 mph N/A   Scattered Clouds
3:15 PM 89.6 °F 89.5 °F 60.8 °F 38% 29.97 in 10.0 mi SSE 16.1 mph 19.6 mph N/A   Scattered Clouds
3:35 PM 91.4 °F 90.7 °F 59.0 °F 34% 29.96 in 10.0 mi South 12.7 mph - N/A   Partly Cloudy
3:55 PM 91.4 °F 90.7 °F 59.0 °F 34% 29.96 in 10.0 mi SSE 10.4 mph 21.9 mph N/A   Scattered Clouds
4:15 PM 91.4 °F 90.7 °F 59.0 °F 34% 29.95 in 10.0 mi SE 12.7 mph 23.0 mph N/A   Scattered Clouds
4:35 PM 91.4 °F 90.7 °F 59.0 °F 34% 29.95 in 10.0 mi SSE 11.5 mph - N/A   Scattered Clouds
4:55 PM 91.4 °F 90.7 °F 59.0 °F 34% 29.95 in 10.0 mi SSE 15.0 mph - N/A   Partly Cloudy
5:15 PM 91.4 °F 89.9 °F 57.2 °F 31% 29.94 in 10.0 mi South 11.5 mph 16.1 mph N/A   Clear
5:35 PM 89.6 °F 88.1 °F 57.2 °F 33% 29.94 in 10.0 mi South 15.0 mph - N/A   Clear
5:55 PM 89.6 °F 88.1 °F 57.2 °F 33% 29.93 in 10.0 mi SSE 12.7 mph 19.6 mph N/A   Clear
6:15 PM 89.6 °F 88.9 °F 59.0 °F 36% 29.93 in 10.0 mi SSE 13.8 mph 17.3 mph N/A   Clear
6:35 PM 87.8 °F 87.1 °F 59.0 °F 38% 29.93 in 10.0 mi SSE 13.8 mph 19.6 mph N/A   Clear
6:55 PM 86.0 °F 85.4 °F 59.0 °F 40% 29.93 in 10.0 mi SSE 15.0 mph 19.6 mph N/A   Clear
7:15 PM 84.2 °F 83.8 °F 59.0 °F 42% 29.95 in 10.0 mi SSE 11.5 mph 16.1 mph N/A   Clear
7:35 PM 84.2 °F 83.8 °F 59.0 °F 42% 29.96 in 10.0 mi SSE 11.5 mph - N/A   Clear
7:55 PM 82.4 °F 82.5 °F 59.0 °F 45% 29.98 in 10.0 mi SSE 8.1 mph - N/A   Scattered Clouds
8:15 PM 82.4 °F 82.5 °F 59.0 °F 45% 29.99 in 10.0 mi SE 8.1 mph - N/A   Mostly Cloudy
8:35 PM 82.4 °F 82.5 °F 59.0 °F 45% 30.00 in 10.0 mi SE 8.1 mph - N/A   Mostly Cloudy
8:55 PM 80.6 °F 80.8 °F 57.2 °F 45% 30.01 in 10.0 mi SE 8.1 mph - N/A   Mostly Cloudy
9:15 PM 80.6 °F 80.8 °F 57.2 °F 45% 30.02 in 10.0 mi SE 8.1 mph - N/A   Mostly Cloudy
9:35 PM 80.6 °F 80.8 °F 57.2 °F 45% 30.02 in 10.0 mi SE 8.1 mph - N/A   Scattered Clouds
9:55 PM 80.6 °F 80.8 °F 57.2 °F 45% 30.03 in 10.0 mi SE 8.1 mph - N/A   Scattered Clouds
10:15 PM 78.8 °F - 57.2 °F 47% 30.04 in 10.0 mi SE 6.9 mph - N/A   Scattered Clouds
10:35 PM 77.0 °F - 57.2 °F 50% 30.04 in 10.0 mi SE 6.9 mph - N/A   Scattered Clouds
10:55 PM 77.0 °F - 57.2 °F 50% 30.04 in 10.0 mi SE 8.1 mph - N/A   Scattered Clouds
11:15 PM 75.2 °F - 57.2 °F 53% 30.04 in 10.0 mi SE 6.9 mph - N/A   Partly Cloudy
11:35 PM 75.2 °F - 57.2 °F 53% 30.05 in 10.0 mi SE 8.1 mph - N/A   Scattered Clouds
11:55 PM 75.2 °F - 57.2 °F 53% 30.04 in 10.0 mi SE 6.9 mph - N/A   Mostly Cloudy